sensor_id;sensor_type;location;lat;lon;timestamp;P1;durP1;ratioP1;P2;durP2;ratioP2
78916;SDS011;68315;48.608;11.436;2023-03-11T00:01:55;1.50;;;1.40;;
78916;SDS011;68315;48.608;11.436;2023-03-11T00:04:20;1.60;;;1.38;;
78916;SDS011;68315;48.608;11.436;2023-03-11T00:06:45;1.42;;;1.27;;
78916;SDS011;68315;48.608;11.436;2023-03-11T00:09:11;1.83;;;1.73;;
78916;SDS011;68315;48.608;11.436;2023-03-11T00:11:36;1.23;;;1.13;;
78916;SDS011;68315;48.608;11.436;2023-03-11T00:14:01;2.70;;;1.27;;
78916;SDS011;68315;48.608;11.436;2023-03-11T00:16:26;1.52;;;1.40;;
78916;SDS011;68315;48.608;11.436;2023-03-11T00:18:52;1.85;;;1.40;;
78916;SDS011;68315;48.608;11.436;2023-03-11T00:21:17;1.63;;;1.52;;
78916;SDS011;68315;48.608;11.436;2023-03-11T00:23:44;1.52;;;1.42;;
78916;SDS011;68315;48.608;11.436;2023-03-11T00:26:10;1.40;;;1.30;;
78916;SDS011;68315;48.608;11.436;2023-03-11T00:28:35;1.83;;;1.63;;
78916;SDS011;68315;48.608;11.436;2023-03-11T00:31:00;1.30;;;1.20;;
78916;SDS011;68315;48.608;11.436;2023-03-11T00:33:26;1.55;;;1.45;;
78916;SDS011;68315;48.608;11.436;2023-03-11T00:35:51;1.40;;;1.30;;
78916;SDS011;68315;48.608;11.436;2023-03-11T00:38:17;1.52;;;1.40;;
78916;SDS011;68315;48.608;11.436;2023-03-11T00:40:43;1.60;;;1.50;;
78916;SDS011;68315;48.608;11.436;2023-03-11T00:43:10;1.27;;;1.23;;
78916;SDS011;68315;48.608;11.436;2023-03-11T00:45:36;1.55;;;1.45;;
78916;SDS011;68315;48.608;11.436;2023-03-11T00:48:01;1.85;;;1.40;;
78916;SDS011;68315;48.608;11.436;2023-03-11T00:50:28;2.65;;;1.58;;
78916;SDS011;68315;48.608;11.436;2023-03-11T00:52:55;1.52;;;1.42;;
78916;SDS011;68315;48.608;11.436;2023-03-11T00:55:25;1.40;;;1.30;;
78916;SDS011;68315;48.608;11.436;2023-03-11T00:57:52;1.50;;;1.40;;
78916;SDS011;68315;48.608;11.436;2023-03-11T01:00:19;1.73;;;1.63;;
78916;SDS011;68315;48.608;11.436;2023-03-11T01:02:45;1.58;;;1.48;;
78916;SDS011;68315;48.608;11.436;2023-03-11T01:05:11;1.80;;;1.45;;
78916;SDS011;68315;48.608;11.436;2023-03-11T01:07:37;2.00;;;1.50;;
78916;SDS011;68315;48.608;11.436;2023-03-11T01:10:03;1.60;;;1.50;;
78916;SDS011;68315;48.608;11.436;2023-03-11T01:12:29;1.83;;;1.73;;
78916;SDS011;68315;48.608;11.436;2023-03-11T01:14:55;1.60;;;1.50;;
78916;SDS011;68315;48.608;11.436;2023-03-11T01:17:20;2.05;;;1.60;;
78916;SDS011;68315;48.608;11.436;2023-03-11T01:19:46;1.70;;;1.60;;
78916;SDS011;68315;48.608;11.436;2023-03-11T01:22:12;1.58;;;1.48;;
78916;SDS011;68315;48.608;11.436;2023-03-11T01:24:37;1.75;;;1.65;;
78916;SDS011;68315;48.608;11.436;2023-03-11T01:27:02;1.63;;;1.52;;
78916;SDS011;68315;48.608;11.436;2023-03-11T01:29:28;3.42;;;1.70;;
78916;SDS011;68315;48.608;11.436;2023-03-11T01:31:53;1.50;;;1.40;;
78916;SDS011;68315;48.608;11.436;2023-03-11T01:34:18;1.80;;;1.50;;
78916;SDS011;68315;48.608;11.436;2023-03-11T01:36:43;1.27;;;1.17;;
78916;SDS011;68315;48.608;11.436;2023-03-11T01:39:09;1.73;;;1.63;;
78916;SDS011;68315;48.608;11.436;2023-03-11T01:41:34;1.60;;;1.50;;
78916;SDS011;68315;48.608;11.436;2023-03-11T01:43:59;1.70;;;1.60;;
78916;SDS011;68315;48.608;11.436;2023-03-11T01:49:19;1.58;;;1.48;;
78916;SDS011;68315;48.608;11.436;2023-03-11T01:51:53;1.77;;;1.67;;
78916;SDS011;68315;48.608;11.436;2023-03-11T01:54:28;1.80;;;1.70;;
78916;SDS011;68315;48.608;11.436;2023-03-11T01:56:56;1.70;;;1.60;;
78916;SDS011;68315;48.608;11.436;2023-03-11T01:59:23;1.90;;;1.70;;
78916;SDS011;68315;48.608;11.436;2023-03-11T02:01:52;1.90;;;1.80;;
78916;SDS011;68315;48.608;11.436;2023-03-11T02:04:25;1.90;;;1.70;;
78916;SDS011;68315;48.608;11.436;2023-03-11T02:06:52;2.33;;;2.13;;
78916;SDS011;68315;48.608;11.436;2023-03-11T02:09:18;1.90;;;1.80;;
78916;SDS011;68315;48.608;11.436;2023-03-11T02:11:44;2.10;;;1.90;;
78916;SDS011;68315;48.608;11.436;2023-03-11T02:14:09;1.95;;;1.83;;
78916;SDS011;68315;48.608;11.436;2023-03-11T02:16:34;2.03;;;1.92;;
78916;SDS011;68315;48.608;11.436;2023-03-11T02:19:04;2.20;;;2.00;;
78916;SDS011;68315;48.608;11.436;2023-03-11T02:21:40;2.47;;;2.28;;
78916;SDS011;68315;48.608;11.436;2023-03-11T02:24:26;1.63;;;1.52;;
78916;SDS011;68315;48.608;11.436;2023-03-11T02:27:09;2.90;;;1.70;;
78916;SDS011;68315;48.608;11.436;2023-03-11T02:29:36;1.83;;;1.73;;
78916;SDS011;68315;48.608;11.436;2023-03-11T02:32:04;1.90;;;1.80;;
78916;SDS011;68315;48.608;11.436;2023-03-11T02:34:32;2.15;;;1.90;;
78916;SDS011;68315;48.608;11.436;2023-03-11T02:36:59;2.03;;;1.92;;
78916;SDS011;68315;48.608;11.436;2023-03-11T02:39:29;1.90;;;1.80;;
78916;SDS011;68315;48.608;11.436;2023-03-11T02:41:54;2.28;;;2.08;;
78916;SDS011;68315;48.608;11.436;2023-03-11T02:44:20;1.95;;;1.83;;
78916;SDS011;68315;48.608;11.436;2023-03-11T02:46:45;1.90;;;1.80;;
78916;SDS011;68315;48.608;11.436;2023-03-11T02:49:11;2.20;;;2.00;;
78916;SDS011;68315;48.608;11.436;2023-03-11T02:51:37;1.85;;;1.67;;
78916;SDS011;68315;48.608;11.436;2023-03-11T02:54:03;1.80;;;1.70;;
78916;SDS011;68315;48.608;11.436;2023-03-11T02:56:29;1.98;;;1.88;;
78916;SDS011;68315;48.608;11.436;2023-03-11T02:58:55;2.00;;;1.73;;
78916;SDS011;68315;48.608;11.436;2023-03-11T03:01:20;2.05;;;1.90;;
78916;SDS011;68315;48.608;11.436;2023-03-11T03:03:46;1.73;;;1.63;;
78916;SDS011;68315;48.608;11.436;2023-03-11T03:06:12;1.95;;;1.70;;
78916;SDS011;68315;48.608;11.436;2023-03-11T03:08:37;1.70;;;1.60;;
78916;SDS011;68315;48.608;11.436;2023-03-11T03:11:02;1.48;;;1.38;;
78916;SDS011;68315;48.608;11.436;2023-03-11T03:13:28;1.75;;;1.52;;
78916;SDS011;68315;48.608;11.436;2023-03-11T03:15:54;1.67;;;1.58;;
78916;SDS011;68315;48.608;11.436;2023-03-11T03:18:19;2.35;;;1.80;;
78916;SDS011;68315;48.608;11.436;2023-03-11T03:20:45;1.70;;;1.60;;
78916;SDS011;68315;48.608;11.436;2023-03-11T03:23:10;1.33;;;1.23;;
78916;SDS011;68315;48.608;11.436;2023-03-11T03:25:35;1.48;;;1.38;;
78916;SDS011;68315;48.608;11.436;2023-03-11T03:28:01;1.60;;;1.50;;
78916;SDS011;68315;48.608;11.436;2023-03-11T03:30:26;1.58;;;1.48;;
78916;SDS011;68315;48.608;11.436;2023-03-11T03:32:53;1.70;;;1.60;;
78916;SDS011;68315;48.608;11.436;2023-03-11T03:35:19;1.85;;;1.75;;
78916;SDS011;68315;48.608;11.436;2023-03-11T03:37:44;3.47;;;1.85;;
78916;SDS011;68315;48.608;11.436;2023-03-11T03:40:09;2.15;;;1.92;;
78916;SDS011;68315;48.608;11.436;2023-03-11T03:42:37;2.63;;;2.00;;
78916;SDS011;68315;48.608;11.436;2023-03-11T03:45:03;2.15;;;2.00;;
78916;SDS011;68315;48.608;11.436;2023-03-11T03:47:30;2.85;;;1.98;;
78916;SDS011;68315;48.608;11.436;2023-03-11T03:49:56;1.75;;;1.65;;
78916;SDS011;68315;48.608;11.436;2023-03-11T03:52:21;2.10;;;1.95;;
78916;SDS011;68315;48.608;11.436;2023-03-11T03:54:46;1.90;;;1.50;;
78916;SDS011;68315;48.608;11.436;2023-03-11T03:57:12;1.90;;;1.70;;
78916;SDS011;68315;48.608;11.436;2023-03-11T03:59:37;1.50;;;1.40;;
78916;SDS011;68315;48.608;11.436;2023-03-11T04:02:02;1.70;;;1.60;;
78916;SDS011;68315;48.608;11.436;2023-03-11T04:04:27;2.28;;;1.60;;
78916;SDS011;68315;48.608;11.436;2023-03-11T04:06:52;1.77;;;1.52;;
78916;SDS011;68315;48.608;11.436;2023-03-11T04:09:18;3.17;;;1.50;;
78916;SDS011;68315;48.608;11.436;2023-03-11T04:11:43;1.92;;;1.55;;
78916;SDS011;68315;48.608;11.436;2023-03-11T04:14:09;1.40;;;1.30;;
78916;SDS011;68315;48.608;11.436;2023-03-11T04:16:34;1.30;;;1.20;;
78916;SDS011;68315;48.608;11.436;2023-03-11T04:18:59;1.17;;;1.10;;
78916;SDS011;68315;48.608;11.436;2023-03-11T04:21:24;1.25;;;1.10;;
78916;SDS011;68315;48.608;11.436;2023-03-11T04:23:50;1.20;;;1.02;;
78916;SDS011;68315;48.608;11.436;2023-03-11T04:26:15;1.23;;;1.13;;
78916;SDS011;68315;48.608;11.436;2023-03-11T04:28:40;1.08;;;0.93;;
78916;SDS011;68315;48.608;11.436;2023-03-11T04:31:06;1.48;;;1.02;;
78916;SDS011;68315;48.608;11.436;2023-03-11T04:33:31;1.85;;;0.82;;
78916;SDS011;68315;48.608;11.436;2023-03-11T04:35:57;2.20;;;1.10;;
78916;SDS011;68315;48.608;11.436;2023-03-11T04:38:23;2.45;;;1.20;;
78916;SDS011;68315;48.608;11.436;2023-03-11T04:40:48;0.90;;;0.90;;
78916;SDS011;68315;48.608;11.436;2023-03-11T04:43:14;1.25;;;1.00;;
78916;SDS011;68315;48.608;11.436;2023-03-11T04:45:39;1.75;;;1.10;;
78916;SDS011;68315;48.608;11.436;2023-03-11T04:48:08;2.35;;;1.13;;
78916;SDS011;68315;48.608;11.436;2023-03-11T04:50:33;1.50;;;0.93;;
78916;SDS011;68315;48.608;11.436;2023-03-11T04:52:59;2.38;;;1.33;;
78916;SDS011;68315;48.608;11.436;2023-03-11T04:55:24;1.35;;;1.17;;
78916;SDS011;68315;48.608;11.436;2023-03-11T04:57:49;2.63;;;1.13;;
78916;SDS011;68315;48.608;11.436;2023-03-11T05:00:15;2.25;;;1.10;;
78916;SDS011;68315;48.608;11.436;2023-03-11T05:02:40;1.35;;;1.20;;
78916;SDS011;68315;48.608;11.436;2023-03-11T05:05:07;3.15;;;1.00;;
78916;SDS011;68315;48.608;11.436;2023-03-11T05:07:33;2.30;;;1.13;;
78916;SDS011;68315;48.608;11.436;2023-03-11T05:09:59;1.30;;;1.20;;
78916;SDS011;68315;48.608;11.436;2023-03-11T05:12:24;2.63;;;1.15;;
78916;SDS011;68315;48.608;11.436;2023-03-11T05:14:50;1.17;;;1.08;;
78916;SDS011;68315;48.608;11.436;2023-03-11T05:17:15;2.58;;;1.30;;
78916;SDS011;68315;48.608;11.436;2023-03-11T05:19:43;1.67;;;1.15;;
78916;SDS011;68315;48.608;11.436;2023-03-11T05:22:08;2.33;;;1.20;;
78916;SDS011;68315;48.608;11.436;2023-03-11T05:24:33;1.45;;;1.20;;
78916;SDS011;68315;48.608;11.436;2023-03-11T05:26:59;1.38;;;1.00;;
78916;SDS011;68315;48.608;11.436;2023-03-11T05:29:25;1.95;;;0.98;;
78916;SDS011;68315;48.608;11.436;2023-03-11T05:31:50;2.35;;;1.30;;
78916;SDS011;68315;48.608;11.436;2023-03-11T05:34:16;2.15;;;1.25;;
78916;SDS011;68315;48.608;11.436;2023-03-11T05:36:41;3.22;;;1.40;;
78916;SDS011;68315;48.608;11.436;2023-03-11T05:39:07;1.25;;;1.10;;
78916;SDS011;68315;48.608;11.436;2023-03-11T05:41:32;2.67;;;1.35;;
78916;SDS011;68315;48.608;11.436;2023-03-11T05:43:58;4.60;;;1.23;;
78916;SDS011;68315;48.608;11.436;2023-03-11T05:46:23;1.20;;;1.10;;
78916;SDS011;68315;48.608;11.436;2023-03-11T05:48:48;4.00;;;1.55;;
78916;SDS011;68315;48.608;11.436;2023-03-11T05:51:13;2.28;;;1.33;;
78916;SDS011;68315;48.608;11.436;2023-03-11T05:53:46;3.65;;;2.08;;
78916;SDS011;68315;48.608;11.436;2023-03-11T05:56:20;17.23;;;11.02;;
78916;SDS011;68315;48.608;11.436;2023-03-11T05:58:47;9.30;;;8.50;;
78916;SDS011;68315;48.608;11.436;2023-03-11T06:01:14;3.50;;;2.40;;
78916;SDS011;68315;48.608;11.436;2023-03-11T06:03:41;3.03;;;2.83;;
78916;SDS011;68315;48.608;11.436;2023-03-11T06:06:07;3.65;;;2.88;;
78916;SDS011;68315;48.608;11.436;2023-03-11T06:08:34;2.35;;;2.13;;
78916;SDS011;68315;48.608;11.436;2023-03-11T06:11:01;1.70;;;1.60;;
78916;SDS011;68315;48.608;11.436;2023-03-11T06:13:33;2.10;;;1.90;;
78916;SDS011;68315;48.608;11.436;2023-03-11T06:15:59;3.30;;;1.70;;
78916;SDS011;68315;48.608;11.436;2023-03-11T06:18:25;4.35;;;1.77;;
78916;SDS011;68315;48.608;11.436;2023-03-11T06:20:50;1.20;;;1.20;;
78916;SDS011;68315;48.608;11.436;2023-03-11T06:23:16;3.28;;;1.48;;
78916;SDS011;68315;48.608;11.436;2023-03-11T06:25:42;4.30;;;1.65;;
78916;SDS011;68315;48.608;11.436;2023-03-11T06:28:08;4.53;;;1.40;;
78916;SDS011;68315;48.608;11.436;2023-03-11T06:30:33;2.13;;;1.85;;
78916;SDS011;68315;48.608;11.436;2023-03-11T06:32:58;2.42;;;2.22;;
78916;SDS011;68315;48.608;11.436;2023-03-11T06:35:24;2.25;;;1.50;;
78916;SDS011;68315;48.608;11.436;2023-03-11T06:37:49;3.45;;;1.63;;
78916;SDS011;68315;48.608;11.436;2023-03-11T06:40:14;2.40;;;1.70;;
78916;SDS011;68315;48.608;11.436;2023-03-11T06:42:40;2.53;;;1.30;;
78916;SDS011;68315;48.608;11.436;2023-03-11T06:45:05;3.45;;;1.50;;
78916;SDS011;68315;48.608;11.436;2023-03-11T06:47:31;3.40;;;1.30;;
78916;SDS011;68315;48.608;11.436;2023-03-11T06:49:56;3.35;;;1.30;;
78916;SDS011;68315;48.608;11.436;2023-03-11T06:52:21;2.40;;;1.80;;
78916;SDS011;68315;48.608;11.436;2023-03-11T06:54:47;4.00;;;1.52;;
78916;SDS011;68315;48.608;11.436;2023-03-11T06:57:12;2.67;;;1.50;;
78916;SDS011;68315;48.608;11.436;2023-03-11T06:59:37;1.30;;;1.10;;
78916;SDS011;68315;48.608;11.436;2023-03-11T07:02:03;1.85;;;1.33;;
78916;SDS011;68315;48.608;11.436;2023-03-11T07:04:30;1.75;;;1.60;;
78916;SDS011;68315;48.608;11.436;2023-03-11T07:06:56;2.15;;;1.40;;
78916;SDS011;68315;48.608;11.436;2023-03-11T07:09:21;2.95;;;1.63;;
78916;SDS011;68315;48.608;11.436;2023-03-11T07:11:49;3.40;;;1.30;;
78916;SDS011;68315;48.608;11.436;2023-03-11T07:14:14;3.00;;;1.30;;
78916;SDS011;68315;48.608;11.436;2023-03-11T07:16:40;4.18;;;1.90;;
78916;SDS011;68315;48.608;11.436;2023-03-11T07:19:06;3.08;;;1.48;;
78916;SDS011;68315;48.608;11.436;2023-03-11T07:21:31;9.30;;;4.68;;
78916;SDS011;68315;48.608;11.436;2023-03-11T07:23:58;6.97;;;4.55;;
78916;SDS011;68315;48.608;11.436;2023-03-11T07:26:25;4.82;;;3.53;;
78916;SDS011;68315;48.608;11.436;2023-03-11T07:28:52;3.13;;;2.03;;
78916;SDS011;68315;48.608;11.436;2023-03-11T07:31:19;5.53;;;2.28;;
78916;SDS011;68315;48.608;11.436;2023-03-11T07:33:49;3.05;;;2.03;;
78916;SDS011;68315;48.608;11.436;2023-03-11T07:36:15;10.45;;;5.22;;
78916;SDS011;68315;48.608;11.436;2023-03-11T07:38:47;29.42;;;10.95;;
78916;SDS011;68315;48.608;11.436;2023-03-11T07:41:13;18.17;;;8.20;;
78916;SDS011;68315;48.608;11.436;2023-03-11T07:43:42;4.97;;;2.60;;
78916;SDS011;68315;48.608;11.436;2023-03-11T07:48:38;29.95;;;10.95;;
78916;SDS011;68315;48.608;11.436;2023-03-11T07:51:05;17.90;;;7.15;;
78916;SDS011;68315;48.608;11.436;2023-03-11T07:53:37;31.75;;;11.25;;
78916;SDS011;68315;48.608;11.436;2023-03-11T07:56:04;20.88;;;7.38;;
78916;SDS011;68315;48.608;11.436;2023-03-11T07:58:30;16.88;;;6.38;;
78916;SDS011;68315;48.608;11.436;2023-03-11T08:00:56;16.75;;;6.20;;
78916;SDS011;68315;48.608;11.436;2023-03-11T08:03:28;19.88;;;6.80;;
78916;SDS011;68315;48.608;11.436;2023-03-11T08:05:53;7.38;;;3.97;;
78916;SDS011;68315;48.608;11.436;2023-03-11T08:08:18;3.58;;;2.00;;
78916;SDS011;68315;48.608;11.436;2023-03-11T08:10:43;1.98;;;1.48;;
78916;SDS011;68315;48.608;11.436;2023-03-11T08:13:10;4.13;;;1.60;;
78916;SDS011;68315;48.608;11.436;2023-03-11T08:15:35;1.83;;;1.40;;
78916;SDS011;68315;48.608;11.436;2023-03-11T08:18:01;2.42;;;1.25;;
78916;SDS011;68315;48.608;11.436;2023-03-11T08:20:27;4.75;;;1.50;;
78916;SDS011;68315;48.608;11.436;2023-03-11T08:22:52;3.58;;;1.60;;
78916;SDS011;68315;48.608;11.436;2023-03-11T08:25:17;4.25;;;1.85;;
78916;SDS011;68315;48.608;11.436;2023-03-11T08:27:42;2.55;;;1.40;;
78916;SDS011;68315;48.608;11.436;2023-03-11T08:30:08;2.20;;;1.70;;
78916;SDS011;68315;48.608;11.436;2023-03-11T08:32:34;4.25;;;1.80;;
78916;SDS011;68315;48.608;11.436;2023-03-11T08:35:00;3.38;;;1.52;;
78916;SDS011;68315;48.608;11.436;2023-03-11T08:37:25;2.50;;;1.55;;
78916;SDS011;68315;48.608;11.436;2023-03-11T08:39:50;3.25;;;1.42;;
78916;SDS011;68315;48.608;11.436;2023-03-11T08:42:16;2.42;;;1.40;;
78916;SDS011;68315;48.608;11.436;2023-03-11T08:44:47;5.15;;;1.58;;
78916;SDS011;68315;48.608;11.436;2023-03-11T08:47:21;5.63;;;2.00;;
78916;SDS011;68315;48.608;11.436;2023-03-11T08:49:46;2.83;;;1.80;;
78916;SDS011;68315;48.608;11.436;2023-03-11T08:52:12;4.18;;;1.60;;
78916;SDS011;68315;48.608;11.436;2023-03-11T08:54:37;2.70;;;2.03;;
78916;SDS011;68315;48.608;11.436;2023-03-11T08:57:02;2.60;;;1.40;;
78916;SDS011;68315;48.608;11.436;2023-03-11T08:59:28;4.03;;;1.70;;
78916;SDS011;68315;48.608;11.436;2023-03-11T09:01:54;2.35;;;1.65;;
78916;SDS011;68315;48.608;11.436;2023-03-11T09:04:20;3.10;;;1.60;;
78916;SDS011;68315;48.608;11.436;2023-03-11T09:06:45;2.90;;;1.75;;
78916;SDS011;68315;48.608;11.436;2023-03-11T09:09:12;4.80;;;1.85;;
78916;SDS011;68315;48.608;11.436;2023-03-11T09:11:49;2.00;;;1.60;;
78916;SDS011;68315;48.608;11.436;2023-03-11T09:14:17;2.40;;;1.55;;
78916;SDS011;68315;48.608;11.436;2023-03-11T09:16:42;5.63;;;2.05;;
78916;SDS011;68315;48.608;11.436;2023-03-11T09:19:08;1.48;;;1.30;;
78916;SDS011;68315;48.608;11.436;2023-03-11T09:21:39;1.40;;;1.30;;
78916;SDS011;68315;48.608;11.436;2023-03-11T09:24:04;2.53;;;1.40;;
78916;SDS011;68315;48.608;11.436;2023-03-11T09:26:30;3.38;;;1.75;;
78916;SDS011;68315;48.608;11.436;2023-03-11T09:28:56;1.83;;;1.35;;
78916;SDS011;68315;48.608;11.436;2023-03-11T09:31:22;2.45;;;1.70;;
78916;SDS011;68315;48.608;11.436;2023-03-11T09:33:48;3.90;;;2.00;;
78916;SDS011;68315;48.608;11.436;2023-03-11T09:36:15;3.75;;;1.65;;
78916;SDS011;68315;48.608;11.436;2023-03-11T09:38:42;2.38;;;1.40;;
78916;SDS011;68315;48.608;11.436;2023-03-11T09:49:23;3.80;;;1.33;;
78916;SDS011;68315;48.608;11.436;2023-03-11T09:52:05;1.52;;;1.42;;
78916;SDS011;68315;48.608;11.436;2023-03-11T09:54:52;2.55;;;1.67;;
78916;SDS011;68315;48.608;11.436;2023-03-11T09:57:30;2.80;;;1.53;;
78916;SDS011;68315;48.608;11.436;2023-03-11T09:59:59;2.75;;;1.30;;
78916;SDS011;68315;48.608;11.436;2023-03-11T10:02:28;3.50;;;1.85;;
78916;SDS011;68315;48.608;11.436;2023-03-11T10:04:58;2.55;;;1.25;;
78916;SDS011;68315;48.608;11.436;2023-03-11T10:07:27;1.45;;;1.15;;
78916;SDS011;68315;48.608;11.436;2023-03-11T10:09:57;1.60;;;1.40;;
78916;SDS011;68315;48.608;11.436;2023-03-11T10:26:42;3.25;;;1.25;;
78916;SDS011;68315;48.608;11.436;2023-03-11T10:29:15;1.40;;;1.30;;
78916;SDS011;68315;48.608;11.436;2023-03-11T10:31:59;1.75;;;1.63;;
78916;SDS011;68315;48.608;11.436;2023-03-11T10:34:33;1.67;;;1.40;;
78916;SDS011;68315;48.608;11.436;2023-03-11T10:39:56;3.08;;;1.27;;
78916;SDS011;68315;48.608;11.436;2023-03-11T10:42:29;2.25;;;1.40;;
78916;SDS011;68315;48.608;11.436;2023-03-11T10:44:56;1.30;;;1.20;;
78916;SDS011;68315;48.608;11.436;2023-03-11T10:47:22;2.88;;;1.67;;
78916;SDS011;68315;48.608;11.436;2023-03-11T10:49:49;2.10;;;1.63;;
78916;SDS011;68315;48.608;11.436;2023-03-11T10:52:16;2.65;;;1.50;;
78916;SDS011;68315;48.608;11.436;2023-03-11T10:54:43;1.30;;;1.13;;
78916;SDS011;68315;48.608;11.436;2023-03-11T10:59:46;1.48;;;1.23;;
78916;SDS011;68315;48.608;11.436;2023-03-11T11:04:50;7.90;;;1.60;;
78916;SDS011;68315;48.608;11.436;2023-03-11T11:07:34;2.55;;;1.70;;
78916;SDS011;68315;48.608;11.436;2023-03-11T11:12:35;1.65;;;1.42;;
78916;SDS011;68315;48.608;11.436;2023-03-11T11:15:02;2.35;;;1.58;;
78916;SDS011;68315;48.608;11.436;2023-03-11T11:17:29;1.63;;;1.40;;
78916;SDS011;68315;48.608;11.436;2023-03-11T11:19:57;6.22;;;2.00;;
78916;SDS011;68315;48.608;11.436;2023-03-11T11:22:24;1.95;;;1.70;;
78916;SDS011;68315;48.608;11.436;2023-03-11T11:24:51;5.28;;;1.90;;
78916;SDS011;68315;48.608;11.436;2023-03-11T11:27:20;1.63;;;1.52;;
78916;SDS011;68315;48.608;11.436;2023-03-11T11:30:02;2.47;;;1.80;;
78916;SDS011;68315;48.608;11.436;2023-03-11T11:32:34;2.33;;;1.30;;
78916;SDS011;68315;48.608;11.436;2023-03-11T11:35:10;1.65;;;1.55;;
78916;SDS011;68315;48.608;11.436;2023-03-11T11:37:38;2.92;;;1.40;;
78916;SDS011;68315;48.608;11.436;2023-03-11T11:42:38;2.22;;;1.40;;
78916;SDS011;68315;48.608;11.436;2023-03-11T11:45:30;1.88;;;1.63;;
78916;SDS011;68315;48.608;11.436;2023-03-11T11:48:03;1.77;;;1.50;;
78916;SDS011;68315;48.608;11.436;2023-03-11T11:50:39;2.60;;;2.15;;
78916;SDS011;68315;48.608;11.436;2023-03-11T11:53:27;1.58;;;1.30;;
78916;SDS011;68315;48.608;11.436;2023-03-11T11:56:00;1.65;;;1.45;;
78916;SDS011;68315;48.608;11.436;2023-03-11T11:58:26;4.03;;;1.50;;
78916;SDS011;68315;48.608;11.436;2023-03-11T12:12:05;1.85;;;1.20;;
78916;SDS011;68315;48.608;11.436;2023-03-11T12:17:16;2.67;;;1.25;;
78916;SDS011;68315;48.608;11.436;2023-03-11T12:19:50;1.70;;;1.30;;
78916;SDS011;68315;48.608;11.436;2023-03-11T12:25:25;3.30;;;1.40;;
78916;SDS011;68315;48.608;11.436;2023-03-11T12:30:42;1.85;;;1.33;;
78916;SDS011;68315;48.608;11.436;2023-03-11T12:35:46;1.52;;;1.30;;
78916;SDS011;68315;48.608;11.436;2023-03-11T12:38:15;2.65;;;1.48;;
78916;SDS011;68315;48.608;11.436;2023-03-11T12:46:00;3.33;;;1.50;;
78916;SDS011;68315;48.608;11.436;2023-03-11T12:50:53;1.90;;;1.60;;
78916;SDS011;68315;48.608;11.436;2023-03-11T12:53:20;2.58;;;1.52;;
78916;SDS011;68315;48.608;11.436;2023-03-11T13:01:41;2.00;;;1.52;;
78916;SDS011;68315;48.608;11.436;2023-03-11T13:09:40;2.28;;;1.30;;
78916;SDS011;68315;48.608;11.436;2023-03-11T13:23:25;1.85;;;1.70;;
78916;SDS011;68315;48.608;11.436;2023-03-11T13:31:07;2.92;;;1.60;;
78916;SDS011;68315;48.608;11.436;2023-03-11T13:41:43;1.45;;;1.30;;
78916;SDS011;68315;48.608;11.436;2023-03-11T13:44:11;2.17;;;1.30;;
78916;SDS011;68315;48.608;11.436;2023-03-11T13:46:41;1.58;;;1.48;;
78916;SDS011;68315;48.608;11.436;2023-03-11T13:51:57;2.03;;;1.50;;
78916;SDS011;68315;48.608;11.436;2023-03-11T13:54:37;1.85;;;1.40;;
78916;SDS011;68315;48.608;11.436;2023-03-11T13:57:10;2.50;;;1.52;;
78916;SDS011;68315;48.608;11.436;2023-03-11T13:59:45;1.30;;;1.20;;
78916;SDS011;68315;48.608;11.436;2023-03-11T14:02:16;1.75;;;1.30;;
78916;SDS011;68315;48.608;11.436;2023-03-11T14:04:47;1.42;;;1.30;;
78916;SDS011;68315;48.608;11.436;2023-03-11T14:07:28;1.77;;;1.67;;
78916;SDS011;68315;48.608;11.436;2023-03-11T14:12:35;1.48;;;1.38;;
78916;SDS011;68315;48.608;11.436;2023-03-11T14:15:03;1.98;;;1.70;;
78916;SDS011;68315;48.608;11.436;2023-03-11T14:17:31;1.85;;;1.75;;
78916;SDS011;68315;48.608;11.436;2023-03-11T14:22:35;3.42;;;2.03;;
78916;SDS011;68315;48.608;11.436;2023-03-11T14:25:06;3.22;;;1.55;;
78916;SDS011;68315;48.608;11.436;2023-03-11T14:27:33;2.08;;;1.48;;
78916;SDS011;68315;48.608;11.436;2023-03-11T14:29:59;2.42;;;1.80;;
78916;SDS011;68315;48.608;11.436;2023-03-11T14:32:26;1.67;;;1.58;;
78916;SDS011;68315;48.608;11.436;2023-03-11T14:34:53;4.25;;;1.50;;
78916;SDS011;68315;48.608;11.436;2023-03-11T14:37:24;3.70;;;1.63;;
78916;SDS011;68315;48.608;11.436;2023-03-11T14:39:57;1.92;;;1.65;;
78916;SDS011;68315;48.608;11.436;2023-03-11T14:42:24;2.65;;;1.90;;
78916;SDS011;68315;48.608;11.436;2023-03-11T14:45:03;2.50;;;1.70;;
78916;SDS011;68315;48.608;11.436;2023-03-11T14:50:04;1.65;;;1.50;;
78916;SDS011;68315;48.608;11.436;2023-03-11T14:52:37;2.00;;;1.80;;
78916;SDS011;68315;48.608;11.436;2023-03-11T14:55:12;3.80;;;1.88;;
78916;SDS011;68315;48.608;11.436;2023-03-11T14:57:57;5.25;;;1.90;;
78916;SDS011;68315;48.608;11.436;2023-03-11T15:00:33;3.65;;;1.77;;
78916;SDS011;68315;48.608;11.436;2023-03-11T15:08:20;2.67;;;1.58;;
78916;SDS011;68315;48.608;11.436;2023-03-11T15:13:34;3.45;;;1.40;;
78916;SDS011;68315;48.608;11.436;2023-03-11T15:16:02;1.50;;;1.40;;
78916;SDS011;68315;48.608;11.436;2023-03-11T15:18:31;1.48;;;1.13;;
78916;SDS011;68315;48.608;11.436;2023-03-11T15:23:29;1.88;;;1.40;;
78916;SDS011;68315;48.608;11.436;2023-03-11T15:25:56;2.00;;;1.50;;
78916;SDS011;68315;48.608;11.436;2023-03-11T15:33:40;2.70;;;1.80;;
78916;SDS011;68315;48.608;11.436;2023-03-11T15:36:26;1.98;;;1.52;;
78916;SDS011;68315;48.608;11.436;2023-03-11T15:41:40;2.22;;;1.52;;
78916;SDS011;68315;48.608;11.436;2023-03-11T15:44:15;5.70;;;1.75;;
78916;SDS011;68315;48.608;11.436;2023-03-11T15:46:47;2.03;;;1.60;;
78916;SDS011;68315;48.608;11.436;2023-03-11T15:49:12;2.17;;;1.45;;
78916;SDS011;68315;48.608;11.436;2023-03-11T15:51:37;2.22;;;1.30;;
78916;SDS011;68315;48.608;11.436;2023-03-11T15:54:03;2.20;;;1.55;;
78916;SDS011;68315;48.608;11.436;2023-03-11T15:56:28;1.88;;;1.33;;
78916;SDS011;68315;48.608;11.436;2023-03-11T15:58:54;3.83;;;1.40;;
78916;SDS011;68315;48.608;11.436;2023-03-11T16:01:19;1.60;;;1.40;;
78916;SDS011;68315;48.608;11.436;2023-03-11T16:03:52;2.67;;;1.27;;
78916;SDS011;68315;48.608;11.436;2023-03-11T16:06:17;1.88;;;1.70;;
78916;SDS011;68315;48.608;11.436;2023-03-11T16:08:42;2.17;;;1.55;;
78916;SDS011;68315;48.608;11.436;2023-03-11T16:11:09;1.38;;;1.20;;
78916;SDS011;68315;48.608;11.436;2023-03-11T16:13:36;1.67;;;1.30;;
78916;SDS011;68315;48.608;11.436;2023-03-11T16:16:02;4.43;;;1.48;;
78916;SDS011;68315;48.608;11.436;2023-03-11T16:18:27;1.95;;;1.40;;
78916;SDS011;68315;48.608;11.436;2023-03-11T16:20:52;1.08;;;1.00;;
78916;SDS011;68315;48.608;11.436;2023-03-11T16:23:20;2.55;;;1.40;;
78916;SDS011;68315;48.608;11.436;2023-03-11T16:25:47;1.50;;;1.40;;
78916;SDS011;68315;48.608;11.436;2023-03-11T16:28:14;2.30;;;1.20;;
78916;SDS011;68315;48.608;11.436;2023-03-11T16:30:40;1.95;;;1.27;;
78916;SDS011;68315;48.608;11.436;2023-03-11T16:33:05;2.00;;;1.42;;
78916;SDS011;68315;48.608;11.436;2023-03-11T16:35:31;1.27;;;1.13;;
78916;SDS011;68315;48.608;11.436;2023-03-11T16:37:56;1.52;;;1.40;;
78916;SDS011;68315;48.608;11.436;2023-03-11T16:40:23;1.30;;;1.20;;
78916;SDS011;68315;48.608;11.436;2023-03-11T16:42:56;1.80;;;1.40;;
78916;SDS011;68315;48.608;11.436;2023-03-11T16:45:25;1.60;;;1.50;;
78916;SDS011;68315;48.608;11.436;2023-03-11T16:47:50;1.58;;;1.20;;
78916;SDS011;68315;48.608;11.436;2023-03-11T16:50:15;1.40;;;1.30;;
78916;SDS011;68315;48.608;11.436;2023-03-11T16:52:41;2.33;;;1.52;;